Time;durP1;ratioP1;P1;durP2;ratioP2;P2;SDS_P1;SDS_P2;PMS_P1;PMS_P2;Temp;Humidity;BMP_temperature;BMP_pressure;BME280_temperature;BME280_humidity;BME280_pressure;Samples;Min_cycle;Max_cycle;Signal;HPM_P1;HPM_P2
2022/09/03 00:02:59;;;;;;;3.72;3.00;;;;;;;;;;10300629;28;20072;-69
2022/09/03 00:08:03;;;;;;;5.30;3.05;;;;;;;;;;10302813;28;20102;-69
2022/09/03 00:13:04;;;;;;;2.90;2.63;;;;;;;;;;10309822;28;20056;-68
2022/09/03 00:18:06;;;;;;;4.10;2.63;;;;;;;;;;10315267;28;20080;-69
2022/09/03 00:23:06;;;;;;;5.85;2.92;;;;;;;;;;10300013;28;20081;-68
2022/09/03 00:28:14;;;;;;;3.17;2.83;;;;;;;;;;10283943;28;20479;-69
2022/09/03 00:33:17;;;;;;;4.30;2.65;;;;;;;;;;10308233;28;20048;-70
2022/09/03 00:38:17;;;;;;;3.10;2.60;;;;;;;;;;10296152;28;20041;-70
2022/09/03 00:43:21;;;;;;;5.03;2.80;;;;;;;;;;10307331;28;20341;-69
2022/09/03 00:48:22;;;;;;;2.83;2.60;;;;;;;;;;10299251;28;20079;-69
2022/09/03 00:53:29;;;;;;;7.40;2.42;;;;;;;;;;10299622;28;20075;-70
2022/09/03 00:58:37;;;;;;;2.97;2.67;;;;;;;;;;10300388;28;20459;-69
2022/09/03 01:03:41;;;;;;;5.78;2.60;;;;;;;;;;10298638;28;20076;-69
2022/09/03 01:08:50;;;;;;;6.32;3.28;;;;;;;;;;10300281;28;20079;-69
2022/09/03 01:13:53;;;;;;;3.58;2.83;;;;;;;;;;10300875;28;20060;-69
2022/09/03 01:18:56;;;;;;;3.53;3.00;;;;;;;;;;10280988;28;20076;-69
2022/09/03 01:24:06;;;;;;;5.03;3.03;;;;;;;;;;10300934;28;20068;-69
2022/09/03 01:29:11;;;;;;;3.92;3.45;;;;;;;;;;10298615;28;20072;-67
2022/09/03 01:34:16;;;;;;;7.07;3.28;;;;;;;;;;10295726;28;20521;-69
2022/09/03 01:39:19;;;;;;;5.07;3.58;;;;;;;;;;10300354;28;20079;-69
2022/09/03 01:44:23;;;;;;;5.03;3.13;;;;;;;;;;10306098;28;20080;-67
2022/09/03 01:49:24;;;;;;;4.35;3.05;;;;;;;;;;10307992;28;20548;-68
2022/09/03 01:54:41;;;;;;;4.57;3.22;;;;;;;;;;10307952;28;20079;-68
2022/09/03 01:59:42;;;;;;;4.72;3.42;;;;;;;;;;10301820;28;20056;-67
2022/09/03 02:04:40;;;;;;;4.25;2.97;;;;;;;;;;10307996;28;20388;-67
2022/09/03 02:09:39;;;;;;;3.90;3.35;;;;;;;;;;10318087;28;20068;-67
2022/09/03 02:14:37;;;;;;;3.88;3.55;;;;;;;;;;10307719;28;20450;-67
2022/09/03 02:19:38;;;;;;;4.40;3.22;;;;;;;;;;10288929;28;20041;-68
2022/09/03 02:24:36;;;;;;;7.00;3.30;;;;;;;;;;10306677;28;20448;-67
2022/09/03 02:29:34;;;;;;;5.57;3.28;;;;;;;;;;10306436;28;20076;-67
2022/09/03 02:34:32;;;;;;;5.75;3.50;;;;;;;;;;10303858;28;20048;-67
2022/09/03 02:39:32;;;;;;;4.43;3.58;;;;;;;;;;10305257;28;20459;-68
2022/09/03 02:44:38;;;;;;;7.00;3.60;;;;;;;;;;10305838;28;20079;-68
2022/09/03 02:49:37;;;;;;;7.60;3.38;;;;;;;;;;10305227;28;20061;-68
2022/09/03 02:54:38;;;;;;;6.47;3.50;;;;;;;;;;10301124;28;20065;-67
2022/09/03 02:59:36;;;;;;;6.95;3.97;;;;;;;;;;10302679;28;20068;-67
2022/09/03 03:04:35;;;;;;;8.45;3.72;;;;;;;;;;10302634;28;20064;-68
2022/09/03 03:09:33;;;;;;;5.00;3.08;;;;;;;;;;10302187;28;20467;-67
2022/09/03 03:14:33;;;;;;;5.88;3.05;;;;;;;;;;10304800;28;20095;-68
2022/09/03 03:19:31;;;;;;;6.65;4.00;;;;;;;;;;10302911;28;20471;-68
2022/09/03 03:24:29;;;;;;;7.97;3.35;;;;;;;;;;10303629;28;20450;-67
2022/09/03 03:29:28;;;;;;;4.53;2.92;;;;;;;;;;10303812;28;20064;-68
2022/09/03 03:34:27;;;;;;;3.78;3.22;;;;;;;;;;10302859;28;20099;-68
2022/09/03 03:39:25;;;;;;;4.35;3.65;;;;;;;;;;10303861;28;20072;-68
2022/09/03 03:44:24;;;;;;;4.60;3.80;;;;;;;;;;10303432;28;20091;-67
2022/09/03 03:49:22;;;;;;;3.95;3.55;;;;;;;;;;10303904;28;20509;-68
2022/09/03 03:54:22;;;;;;;5.60;4.30;;;;;;;;;;10297194;28;20437;-68
2022/09/03 03:59:20;;;;;;;16.20;14.45;;;;;;;;;;10297558;28;20051;-67
2022/09/03 04:04:18;;;;;;;7.35;6.60;;;;;;;;;;10301012;28;20087;-68
2022/09/03 04:09:17;;;;;;;7.25;5.05;;;;;;;;;;10302001;28;20064;-68
2022/09/03 04:14:17;;;;;;;5.07;2.90;;;;;;;;;;10300745;28;20076;-68
2022/09/03 04:19:15;;;;;;;4.72;3.58;;;;;;;;;;10315247;28;20080;-68
2022/09/03 04:24:14;;;;;;;8.35;3.30;;;;;;;;;;10315016;28;20478;-68
2022/09/03 04:29:12;;;;;;;5.35;3.22;;;;;;;;;;10300968;28;20136;-67
2022/09/03 04:34:12;;;;;;;4.70;3.30;;;;;;;;;;10311194;28;20080;-68
2022/09/03 04:39:10;;;;;;;6.00;3.88;;;;;;;;;;10299314;28;20072;-68
2022/09/03 04:44:08;;;;;;;5.35;3.42;;;;;;;;;;10291340;28;20073;-67
2022/09/03 04:49:09;;;;;;;7.38;5.13;;;;;;;;;;10296898;28;20059;-66
2022/09/03 04:54:09;;;;;;;5.63;4.80;;;;;;;;;;10282405;28;20079;-67
2022/09/03 04:59:09;;;;;;;5.80;4.20;;;;;;;;;;10296420;28;20048;-67
2022/09/03 05:04:07;;;;;;;9.90;4.70;;;;;;;;;;10314611;28;20075;-67
2022/09/03 05:09:06;;;;;;;10.95;6.55;;;;;;;;;;10313551;28;20056;-67
2022/09/03 05:14:06;;;;;;;5.22;3.85;;;;;;;;;;10305720;28;20067;-67
2022/09/03 05:19:06;;;;;;;9.48;3.40;;;;;;;;;;10305562;28;20064;-67
2022/09/03 05:24:05;;;;;;;7.32;4.47;;;;;;;;;;10304643;28;20071;-66
2022/09/03 05:29:06;;;;;;;6.97;5.50;;;;;;;;;;10299645;28;20083;-66
2022/09/03 05:34:06;;;;;;;4.88;4.10;;;;;;;;;;10292879;28;20312;-67
2022/09/03 05:39:05;;;;;;;8.20;5.90;;;;;;;;;;10314591;28;20072;-68
2022/09/03 05:44:04;;;;;;;8.38;3.90;;;;;;;;;;10311807;28;20071;-68
2022/09/03 05:49:04;;;;;;;5.65;3.92;;;;;;;;;;10312102;28;21212;-67
2022/09/03 05:54:04;;;;;;;4.97;4.25;;;;;;;;;;10302960;28;20148;-67
2022/09/03 05:59:05;;;;;;;6.82;3.90;;;;;;;;;;10304700;28;20060;-67
2022/09/03 06:04:05;;;;;;;7.03;4.30;;;;;;;;;;10303429;28;20076;-67
2022/09/03 06:09:05;;;;;;;32.28;27.77;;;;;;;;;;10299650;28;20171;-68
2022/09/03 06:14:05;;;;;;;7.20;5.75;;;;;;;;;;10306728;28;20063;-68
2022/09/03 06:19:04;;;;;;;8.70;5.32;;;;;;;;;;10311986;28;20575;-67
2022/09/03 06:24:03;;;;;;;6.85;4.57;;;;;;;;;;10315834;28;20087;-68
2022/09/03 06:29:02;;;;;;;7.80;4.15;;;;;;;;;;10300760;28;20095;-67
2022/09/03 06:34:01;;;;;;;8.48;5.72;;;;;;;;;;10320816;28;20071;-67
2022/09/03 06:39:01;;;;;;;7.95;4.40;;;;;;;;;;10307680;28;20110;-68
2022/09/03 06:44:01;;;;;;;6.47;5.20;;;;;;;;;;10317531;28;20067;-68
2022/09/03 06:49:02;;;;;;;10.02;6.78;;;;;;;;;;10313063;28;20079;-67
2022/09/03 06:54:01;;;;;;;6.65;4.70;;;;;;;;;;10295646;28;20080;-67
2022/09/03 06:59:00;;;;;;;8.45;6.18;;;;;;;;;;10298680;28;20064;-68
2022/09/03 07:03:59;;;;;;;7.57;5.05;;;;;;;;;;10308856;28;20075;-67
2022/09/03 07:08:59;;;;;;;9.90;5.30;;;;;;;;;;10297197;28;20100;-67
2022/09/03 07:13:58;;;;;;;5.88;4.57;;;;;;;;;;10286355;28;20071;-68
2022/09/03 07:18:57;;;;;;;9.75;4.93;;;;;;;;;;10298792;28;20067;-68
2022/09/03 07:23:55;;;;;;;9.50;4.80;;;;;;;;;;10299506;28;20079;-69
2022/09/03 07:28:55;;;;;;;7.20;5.75;;;;;;;;;;10316959;28;20072;-70
2022/09/03 07:33:55;;;;;;;12.30;7.40;;;;;;;;;;10318168;28;20095;-68
2022/09/03 07:38:55;;;;;;;17.17;14.80;;;;;;;;;;10292058;28;20521;-69
2022/09/03 07:43:55;;;;;;;8.45;6.25;;;;;;;;;;10286951;28;20068;-69
2022/09/03 07:48:54;;;;;;;12.85;7.70;;;;;;;;;;10302298;28;20068;-69
2022/09/03 07:53:54;;;;;;;9.35;6.38;;;;;;;;;;10311769;28;20465;-67
2022/09/03 07:58:54;;;;;;;13.43;6.05;;;;;;;;;;10309906;28;20067;-68
2022/09/03 08:03:53;;;;;;;14.20;10.85;;;;;;;;;;10303464;28;20072;-67
2022/09/03 08:08:55;;;;;;;27.00;21.85;;;;;;;;;;10305026;28;20076;-69
2022/09/03 08:14:01;;;;;;;11.90;7.35;;;;;;;;;;10298528;28;20477;-69
2022/09/03 08:19:01;;;;;;;11.18;6.10;;;;;;;;;;10281127;28;20064;-69
2022/09/03 08:24:01;;;;;;;13.35;9.35;;;;;;;;;;10283802;28;20072;-69
2022/09/03 08:29:00;;;;;;;8.43;5.60;;;;;;;;;;10287876;28;20064;-69
2022/09/03 08:34:00;;;;;;;11.35;8.75;;;;;;;;;;10293630;28;20086;-68
2022/09/03 08:39:03;;;;;;;11.90;8.63;;;;;;;;;;10300798;28;20084;-69
2022/09/03 08:44:06;;;;;;;9.70;5.82;;;;;;;;;;10298911;28;20067;-69
2022/09/03 08:49:05;;;;;;;7.65;6.35;;;;;;;;;;10300448;28;20095;-69
2022/09/03 08:54:05;;;;;;;9.63;7.18;;;;;;;;;;10315108;28;20060;-69
2022/09/03 08:59:04;;;;;;;10.02;6.72;;;;;;;;;;10314656;28;20489;-69
2022/09/03 09:04:07;;;;;;;9.43;5.18;;;;;;;;;;10318478;28;20069;-69
2022/09/03 09:09:12;;;;;;;6.57;4.32;;;;;;;;;;10299488;28;20076;-69
2022/09/03 09:14:13;;;;;;;12.05;5.93;;;;;;;;;;10301516;28;20080;-69
2022/09/03 09:19:20;;;;;;;7.03;5.57;;;;;;;;;;10300998;28;20074;-69
2022/09/03 09:24:22;;;;;;;8.52;5.40;;;;;;;;;;10301877;28;20469;-69
2022/09/03 09:29:20;;;;;;;6.95;5.43;;;;;;;;;;10298575;28;20086;-68
2022/09/03 09:34:19;;;;;;;6.78;4.72;;;;;;;;;;10302423;28;20085;-68
2022/09/03 09:39:17;;;;;;;6.35;4.80;;;;;;;;;;10317936;28;20075;-68
2022/09/03 09:44:21;;;;;;;11.48;5.28;;;;;;;;;;10315824;28;20508;-67
2022/09/03 09:49:28;;;;;;;7.05;5.20;;;;;;;;;;10317026;28;20095;-68
2022/09/03 09:54:27;;;;;;;10.13;5.40;;;;;;;;;;10306710;28;20056;-68
2022/09/03 09:59:26;;;;;;;13.63;8.32;;;;;;;;;;10311643;28;20079;-69
2022/09/03 10:04:30;;;;;;;15.02;12.02;;;;;;;;;;10299611;28;20078;-68
2022/09/03 10:09:31;;;;;;;6.97;6.25;;;;;;;;;;10314341;28;20064;-68
2022/09/03 10:14:34;;;;;;;12.80;6.60;;;;;;;;;;10327607;28;20072;-69
2022/09/03 10:19:40;;;;;;;12.65;5.90;;;;;;;;;;10320307;28;20064;-67
2022/09/03 10:24:41;;;;;;;10.02;5.13;;;;;;;;;;10324153;28;20058;-69
2022/09/03 10:29:41;;;;;;;8.32;6.45;;;;;;;;;;10323249;28;20083;-68
2022/09/03 10:34:44;;;;;;;26.63;21.90;;;;;;;;;;10302634;28;20169;-68
2022/09/03 10:39:48;;;;;;;12.98;8.68;;;;;;;;;;10304232;28;20076;-68
2022/09/03 10:44:56;;;;;;;15.63;13.23;;;;;;;;;;10305039;28;20095;-67
2022/09/03 10:50:00;;;;;;;6.07;5.47;;;;;;;;;;10305389;28;20071;-69
2022/09/03 10:55:14;;;;;;;5.97;4.20;;;;;;;;;;10305941;28;20067;-68
2022/09/03 11:00:15;;;;;;;12.52;9.50;;;;;;;;;;10300377;28;20068;-68
2022/09/03 11:05:15;;;;;;;7.35;5.32;;;;;;;;;;10306891;28;20049;-69
2022/09/03 11:10:16;;;;;;;5.72;4.10;;;;;;;;;;10304867;28;20080;-68
2022/09/03 11:15:20;;;;;;;7.05;4.03;;;;;;;;;;10281447;28;20426;-67
2022/09/03 11:20:24;;;;;;;5.78;4.97;;;;;;;;;;10307393;28;20045;-68
2022/09/03 11:25:26;;;;;;;10.63;7.22;;;;;;;;;;10316315;28;20481;-67
2022/09/03 11:30:29;;;;;;;6.75;5.63;;;;;;;;;;10302514;28;20525;-66
2022/09/03 11:35:28;;;;;;;8.20;6.90;;;;;;;;;;10301774;28;20107;-67
2022/09/03 11:40:32;;;;;;;7.05;4.72;;;;;;;;;;10305021;28;20406;-67
2022/09/03 11:45:36;;;;;;;13.40;11.68;;;;;;;;;;10283474;28;20044;-67
2022/09/03 11:50:35;;;;;;;7.38;5.18;;;;;;;;;;10303108;28;20076;-66
2022/09/03 11:55:53;;;;;;;4.43;3.72;;;;;;;;;;10303045;28;20509;-66
2022/09/03 12:00:55;;;;;;;12.63;7.22;;;;;;;;;;10301029;28;20428;-65
2022/09/03 12:06:04;;;;;;;9.43;4.38;;;;;;;;;;10302320;28;20609;-68
2022/09/03 12:11:08;;;;;;;11.52;5.25;;;;;;;;;;10300567;28;20525;-67
2022/09/03 12:16:15;;;;;;;4.43;4.00;;;;;;;;;;10305014;28;20087;-66
2022/09/03 12:21:16;;;;;;;24.92;16.55;;;;;;;;;;10307949;28;20458;-66
2022/09/03 12:26:16;;;;;;;12.25;10.60;;;;;;;;;;10316454;28;20069;-67
2022/09/03 12:31:21;;;;;;;5.70;4.57;;;;;;;;;;10313872;28;20091;-67
2022/09/03 12:36:20;;;;;;;8.32;5.45;;;;;;;;;;10327829;28;20052;-67
2022/09/03 12:41:22;;;;;;;5.97;3.55;;;;;;;;;;10312272;28;20041;-66
2022/09/03 12:46:27;;;;;;;5.63;2.40;;;;;;;;;;10313459;28;20505;-66
2022/09/03 12:51:31;;;;;;;21.58;16.50;;;;;;;;;;10313448;28;20072;-67
2022/09/03 12:56:54;;;;;;;6.28;4.22;;;;;;;;;;10301540;28;20073;-67
2022/09/03 13:01:56;;;;;;;9.77;4.95;;;;;;;;;;10300917;28;20513;-67
2022/09/03 13:07:02;;;;;;;6.13;4.78;;;;;;;;;;10305661;28;20056;-66
2022/09/03 13:12:04;;;;;;;4.88;3.22;;;;;;;;;;10300736;28;20191;-66
2022/09/03 13:17:08;;;;;;;4.30;3.50;;;;;;;;;;10301125;28;20167;-66
2022/09/03 13:22:10;;;;;;;4.67;3.70;;;;;;;;;;10309940;28;20050;-67
2022/09/03 13:27:17;;;;;;;22.95;19.95;;;;;;;;;;10295266;28;20069;-66
2022/09/03 13:32:26;;;;;;;6.55;4.88;;;;;;;;;;10295957;28;20118;-67
2022/09/03 13:37:31;;;;;;;5.15;4.00;;;;;;;;;;10301339;28;20083;-67
2022/09/03 13:42:33;;;;;;;13.23;7.70;;;;;;;;;;10305435;28;20068;-66
2022/09/03 13:47:35;;;;;;;9.15;6.55;;;;;;;;;;10307004;28;20079;-66
2022/09/03 13:52:38;;;;;;;6.75;4.82;;;;;;;;;;10321698;28;20376;-67
2022/09/03 13:57:39;;;;;;;7.82;4.95;;;;;;;;;;10320391;28;20036;-68
2022/09/03 14:02:46;;;;;;;4.72;3.75;;;;;;;;;;10287890;28;20048;-68
2022/09/03 14:07:50;;;;;;;5.93;5.32;;;;;;;;;;10300688;28;20084;-68
2022/09/03 14:12:50;;;;;;;26.73;22.75;;;;;;;;;;10305637;28;20060;-68
2022/09/03 14:17:56;;;;;;;7.07;4.13;;;;;;;;;;10309988;28;20148;-68
2022/09/03 14:22:58;;;;;;;6.35;4.32;;;;;;;;;;10303358;28;20083;-67
2022/09/03 14:28:12;;;;;;;5.53;4.95;;;;;;;;;;10323318;28;20060;-67
2022/09/03 14:33:17;;;;;;;7.13;5.50;;;;;;;;;;10320055;28;20493;-66
2022/09/03 14:38:27;;;;;;;6.47;5.60;;;;;;;;;;10308915;28;20064;-68
2022/09/03 14:43:32;;;;;;;24.95;19.08;;;;;;;;;;10319242;28;20758;-67
2022/09/03 14:48:37;;;;;;;6.68;5.78;;;;;;;;;;10319448;28;20087;-67
2022/09/03 14:53:55;;;;;;;8.20;6.38;;;;;;;;;;10304600;28;20075;-67
2022/09/03 14:59:02;;;;;;;11.15;7.95;;;;;;;;;;10303184;28;20095;-68
2022/09/03 15:04:27;;;;;;;12.40;7.60;;;;;;;;;;10305080;28;20969;-66
2022/09/03 15:09:32;;;;;;;8.70;5.72;;;;;;;;;;10306236;28;20136;-68
2022/09/03 15:14:35;;;;;;;11.15;9.35;;;;;;;;;;10310856;28;20540;-67
2022/09/03 15:19:48;;;;;;;9.82;7.10;;;;;;;;;;10310430;28;20095;-67
2022/09/03 15:24:50;;;;;;;10.73;9.07;;;;;;;;;;10312823;28;20064;-67
2022/09/03 15:29:52;;;;;;;20.63;16.75;;;;;;;;;;10325052;28;20079;-67
2022/09/03 15:34:59;;;;;;;20.95;16.08;;;;;;;;;;10316899;28;20076;-67
2022/09/03 15:39:59;;;;;;;8.07;5.85;;;;;;;;;;10296841;28;20075;-67
2022/09/03 15:45:02;;;;;;;7.32;6.53;;;;;;;;;;10315944;28;20060;-67
2022/09/03 15:50:05;;;;;;;14.45;10.93;;;;;;;;;;10303320;28;20095;-67
2022/09/03 15:55:08;;;;;;;7.60;6.32;;;;;;;;;;10303868;28;20076;-68
2022/09/03 16:00:07;;;;;;;12.45;6.88;;;;;;;;;;10298165;28;20087;-69
2022/09/03 16:05:15;;;;;;;23.27;18.13;;;;;;;;;;10302193;28;20555;-69
2022/09/03 16:10:15;;;;;;;8.25;6.43;;;;;;;;;;10307124;28;20079;-69
2022/09/03 16:15:24;;;;;;;8.15;6.32;;;;;;;;;;10303504;28;20075;-68
2022/09/03 16:20:27;;;;;;;8.20;4.32;;;;;;;;;;10298722;28;20566;-68
2022/09/03 16:25:29;;;;;;;5.75;5.22;;;;;;;;;;10296780;28;20065;-71
2022/09/03 16:30:35;;;;;;;5.68;4.75;;;;;;;;;;10310994;28;20072;-71
2022/09/03 16:35:41;;;;;;;6.63;4.30;;;;;;;;;;10307169;28;20099;-71
2022/09/03 16:40:43;;;;;;;4.32;3.92;;;;;;;;;;10306576;28;20064;-70
2022/09/03 16:45:47;;;;;;;7.53;5.53;;;;;;;;;;10310274;28;20073;-71
2022/09/03 16:50:52;;;;;;;6.20;4.32;;;;;;;;;;10299825;28;20083;-69
2022/09/03 16:55:57;;;;;;;6.28;4.55;;;;;;;;;;10299478;28;20513;-70
2022/09/03 17:01:01;;;;;;;5.25;4.72;;;;;;;;;;10307495;28;20060;-71
2022/09/03 17:06:30;;;;;;;5.32;4.40;;;;;;;;;;10299782;28;20084;-70
2022/09/03 17:11:42;;;;;;;5.07;4.57;;;;;;;;;;10300250;28;20075;-70
2022/09/03 17:16:47;;;;;;;4.75;4.28;;;;;;;;;;10300268;28;20081;-69
2022/09/03 17:21:52;;;;;;;4.97;3.78;;;;;;;;;;10304777;28;20080;-70
2022/09/03 17:26:54;;;;;;;6.55;5.22;;;;;;;;;;10296598;28;20064;-70
2022/09/03 17:31:56;;;;;;;6.05;4.53;;;;;;;;;;10296940;28;20479;-65
2022/09/03 17:36:59;;;;;;;10.52;7.70;;;;;;;;;;10297034;28;20079;-69
2022/09/03 17:42:01;;;;;;;11.05;5.40;;;;;;;;;;10296881;28;20073;-70
2022/09/03 17:47:05;;;;;;;6.00;5.40;;;;;;;;;;10299731;28;20064;-70
2022/09/03 17:52:06;;;;;;;7.50;5.20;;;;;;;;;;10299166;28;20045;-70
2022/09/03 17:57:11;;;;;;;9.13;6.82;;;;;;;;;;10299799;28;20072;-68
2022/09/03 18:02:17;;;;;;;13.65;7.90;;;;;;;;;;10284273;28;20423;-69
2022/09/03 18:07:22;;;;;;;10.75;6.40;;;;;;;;;;10301059;28;20072;-69
2022/09/03 18:12:27;;;;;;;7.50;6.03;;;;;;;;;;10310391;28;20103;-70
2022/09/03 18:17:28;;;;;;;8.70;7.50;;;;;;;;;;10313068;28;20063;-69
2022/09/03 20:15:11;;;;;;;8.20;5.82;;;;;;;;;;10300100;28;20041;-69
2022/09/03 20:20:15;;;;;;;5.25;4.72;;;;;;;;;;10305928;28;20080;-69
2022/09/03 20:25:25;;;;;;;9.97;5.80;;;;;;;;;;10304651;28;20071;-68
2022/09/03 20:30:28;;;;;;;7.93;5.70;;;;;;;;;;10304235;28;20282;-69
2022/09/03 20:35:32;;;;;;;10.48;5.90;;;;;;;;;;10301825;28;20109;-69
2022/09/03 20:40:31;;;;;;;;;;;;;;;;;;10309053;28;20063;-70
2022/09/03 20:45:32;;;;;;;7.15;5.80;;;;;;;;;;10311216;28;19983;-68
2022/09/03 20:50:42;;;;;;;8.38;5.30;;;;;;;;;;10306304;28;20064;-69
2022/09/03 20:55:42;;;;;;;9.90;5.57;;;;;;;;;;10304995;28;20115;-68
2022/09/03 21:00:48;;;;;;;7.63;4.57;;;;;;;;;;10303596;28;20110;-68
2022/09/03 21:06:02;;;;;;;5.35;4.85;;;;;;;;;;10304268;28;20071;-68
2022/09/03 21:11:05;;;;;;;6.03;5.22;;;;;;;;;;10301662;28;20079;-70
2022/09/03 21:16:08;;;;;;;7.45;6.13;;;;;;;;;;10304499;28;20060;-69
2022/09/03 21:21:11;;;;;;;6.22;5.43;;;;;;;;;;10304189;28;20068;-68
2022/09/03 21:26:13;;;;;;;5.63;5.07;;;;;;;;;;10306039;28;20076;-68
2022/09/03 21:31:16;;;;;;;8.15;5.10;;;;;;;;;;10312114;28;20083;-68
2022/09/03 21:36:15;;;;;;;5.60;5.10;;;;;;;;;;10308051;28;20068;-68
2022/09/03 21:41:17;;;;;;;6.07;4.90;;;;;;;;;;10301615;28;20076;-70
2022/09/03 21:46:20;;;;;;;5.80;5.10;;;;;;;;;;10300133;28;20075;-67
2022/09/03 21:51:20;;;;;;;5.40;4.90;;;;;;;;;;10300565;28;20065;-68
2022/09/03 21:56:33;;;;;;;8.55;5.25;;;;;;;;;;10301551;28;20052;-68
2022/09/03 22:01:43;;;;;;;9.30;5.32;;;;;;;;;;10304778;28;20087;-68
2022/09/03 22:06:46;;;;;;;11.48;5.65;;;;;;;;;;10308447;28;20076;-68
2022/09/03 22:11:50;;;;;;;5.37;4.87;;;;;;;;;;10308548;28;20489;-69
2022/09/03 22:16:53;;;;;;;7.82;5.30;;;;;;;;;;10287090;28;20048;-69
2022/09/03 22:21:58;;;;;;;7.68;5.70;;;;;;;;;;10315829;28;20118;-69
2022/09/03 22:27:00;;;;;;;6.22;5.45;;;;;;;;;;10320532;28;20412;-69
2022/09/03 22:32:04;;;;;;;9.25;5.57;;;;;;;;;;10318293;28;20481;-69
2022/09/03 22:37:04;;;;;;;6.50;5.90;;;;;;;;;;10358879;28;20070;-69
2022/09/03 22:42:14;;;;;;;8.85;6.35;;;;;;;;;;10361560;28;20528;-70
2022/09/03 22:47:18;;;;;;;7.28;6.57;;;;;;;;;;10361927;28;20083;-69
2022/09/03 22:52:25;;;;;;;6.60;5.47;;;;;;;;;;10350313;28;20505;-69
2022/09/03 22:57:25;;;;;;;7.15;6.32;;;;;;;;;;10355672;28;20067;-68
2022/09/03 23:02:26;;;;;;;9.20;5.85;;;;;;;;;;10361443;28;20079;-69
2022/09/03 23:07:30;;;;;;;12.18;6.30;;;;;;;;;;10360853;28;20537;-69
2022/09/03 23:12:33;;;;;;;6.78;5.93;;;;;;;;;;10345644;28;20078;-69
2022/09/03 23:17:34;;;;;;;8.57;6.20;;;;;;;;;;10345937;28;20076;-69
2022/09/03 23:22:34;;;;;;;7.47;6.07;;;;;;;;;;10349323;28;20155;-69
2022/09/03 23:27:35;;;;;;;8.65;6.28;;;;;;;;;;10345044;28;20071;-69
2022/09/03 23:32:35;;;;;;;8.30;7.55;;;;;;;;;;10346434;28;20090;-68
2022/09/03 23:37:40;;;;;;;8.75;7.70;;;;;;;;;;10346296;28;20625;-70
2022/09/03 23:42:46;;;;;;;7.75;6.90;;;;;;;;;;10339739;28;20064;-68
2022/09/03 23:47:52;;;;;;;9.55;6.80;;;;;;;;;;10339951;28;20087;-68
2022/09/03 23:53:01;;;;;;;9.18;6.85;;;;;;;;;;10345127;28;20094;-69
2022/09/03 23:58:06;;;;;;;9.02;6.72;;;;;;;;;;10346277;28;20501;-69
